Time;durP1;ratioP1;P1;durP2;ratioP2;P2;SDS_P1;SDS_P2;PMS_P1;PMS_P2;Temp;Humidity;BMP_temperature;BMP_pressure;BME280_temperature;BME280_humidity;BME280_pressure;Samples;Min_cycle;Max_cycle;Signal;HPM_P1;HPM_P2
2022/06/04 00:01:53;;;;;;;5.45;2.20;;;;;;;14.25;68.66;101863.81;5091730;28;20109;-69
2022/06/04 00:04:21;;;;;;;4.68;2.30;;;;;;;14.23;69.43;101865.69;5091762;28;20124;-69
2022/06/04 00:06:50;;;;;;;7.00;2.40;;;;;;;14.11;70.22;101867.34;5091885;28;20042;-69
2022/06/04 00:09:21;;;;;;;4.88;2.17;;;;;;;14.01;70.79;101864.41;5091965;28;20376;-68
2022/06/04 00:17:21;;;;;;;6.13;2.25;;;;;;;13.84;72.48;101854.06;5091735;28;20055;-68
2022/06/04 00:19:50;;;;;;;5.97;2.58;;;;;;;13.80;73.15;101858.69;5090302;28;20040;-72
2022/06/04 00:22:19;;;;;;;5.18;2.78;;;;;;;13.76;73.88;101861.63;5092053;28;20449;-71
2022/06/04 00:24:48;;;;;;;5.50;2.42;;;;;;;13.65;74.41;101862.31;5091439;28;20426;-73
2022/06/04 00:27:18;;;;;;;4.45;2.53;;;;;;;13.57;75.27;101862.75;5091387;28;20131;-69
2022/06/04 00:29:46;;;;;;;9.00;2.63;;;;;;;13.65;75.16;101852.56;5091226;28;20598;-69
2022/06/04 00:32:14;;;;;;;3.70;2.30;;;;;;;13.59;75.60;101844.16;5091690;28;20052;-69
2022/06/04 00:34:42;;;;;;;6.88;2.70;;;;;;;13.55;75.83;101845.31;5091189;28;20048;-72
2022/06/04 00:37:11;;;;;;;7.70;2.70;;;;;;;13.30;77.41;101847.63;5091369;28;20051;-69
2022/06/04 00:39:40;;;;;;;6.00;2.97;;;;;;;13.25;77.75;101841.78;5090277;28;20135;-69
2022/06/04 00:42:12;;;;;;;5.50;2.65;;;;;;;13.32;77.81;101853.66;5091400;28;20081;-69
2022/06/04 00:45:22;;;;;;;5.77;2.97;;;;;;;13.18;78.21;101853.63;5091438;28;20032;-69
2022/06/04 00:47:51;;;;;;;5.75;2.97;;;;;;;13.24;78.51;101858.56;5091365;28;20465;-69
2022/06/04 00:50:22;;;;;;;6.13;2.88;;;;;;;13.19;78.61;101858.00;5091379;28;20044;-69
2022/06/04 00:52:53;;;;;;;5.07;2.67;;;;;;;13.13;78.80;101848.66;5090249;28;20044;-70
2022/06/04 00:55:24;;;;;;;7.10;3.10;;;;;;;13.11;78.92;101854.97;5091170;28;20051;-68
2022/06/04 00:58:15;;;;;;;5.80;2.65;;;;;;;13.09;79.04;101848.91;5091179;28;20069;-69
2022/06/04 01:00:50;;;;;;;7.68;3.00;;;;;;;13.06;79.60;101841.19;5093097;28;20054;-68
2022/06/04 01:03:44;;;;;;;7.97;2.88;;;;;;;13.07;79.31;101842.88;5095260;28;20047;-68
2022/06/04 01:06:36;;;;;;;7.63;3.40;;;;;;;12.94;80.40;101843.63;5095022;28;20052;-68
2022/06/04 01:09:28;;;;;;;5.75;3.03;;;;;;;12.93;80.49;101855.09;5093808;28;20047;-69
2022/06/04 01:12:10;;;;;;;5.43;3.20;;;;;;;12.83;81.50;101846.06;5091161;28;20091;-70
2022/06/04 01:14:53;;;;;;;7.32;3.25;;;;;;;12.81;81.86;101842.63;5094910;28;20040;-69
2022/06/04 01:17:41;;;;;;;8.88;3.75;;;;;;;12.78;81.70;101843.66;5093959;28;20062;-73
2022/06/04 01:20:20;;;;;;;6.60;3.50;;;;;;;12.79;81.85;101845.38;5095101;28;20044;-71
2022/06/04 01:23:15;;;;;;;9.73;3.53;;;;;;;12.65;82.57;101862.00;5094844;28;20048;-72
2022/06/04 01:25:59;;;;;;;7.82;3.40;;;;;;;12.67;82.83;101869.84;5094821;28;20131;-69
2022/06/04 01:28:31;;;;;;;7.57;3.65;;;;;;;12.74;82.89;101887.00;5094767;28;20494;-69
2022/06/04 01:31:06;;;;;;;7.00;3.60;;;;;;;12.73;83.34;101882.66;5094973;28;20055;-69
2022/06/04 01:33:38;;;;;;;7.45;3.58;;;;;;;12.66;83.50;101895.34;5094605;28;20603;-69
2022/06/04 01:36:11;;;;;;;8.70;3.60;;;;;;;12.71;83.45;101895.13;5094688;28;20494;-69
2022/06/04 01:38:43;;;;;;;9.20;4.03;;;;;;;12.71;83.82;101910.09;5095160;28;20528;-69
2022/06/04 01:41:15;;;;;;;7.60;4.10;;;;;;;12.72;84.00;101914.44;5094598;28;20048;-73
2022/06/04 01:43:47;;;;;;;5.80;3.60;;;;;;;12.65;84.55;101920.06;5094696;28;20232;-69
2022/06/04 01:46:20;;;;;;;9.18;4.00;;;;;;;12.65;84.51;101922.72;5094449;28;20054;-72
2022/06/04 01:48:54;;;;;;;7.10;3.67;;;;;;;12.64;84.89;101913.09;5094383;28;20398;-69
2022/06/04 01:51:24;;;;;;;6.78;4.03;;;;;;;12.60;84.91;101908.94;5094439;28;20399;-72
2022/06/04 01:53:59;;;;;;;8.77;4.25;;;;;;;12.60;85.26;101898.38;5094597;28;20078;-71
2022/06/04 01:56:31;;;;;;;7.63;4.10;;;;;;;12.67;85.00;101894.44;5094125;28;20502;-72
2022/06/04 01:59:06;;;;;;;6.85;4.07;;;;;;;12.67;85.13;101909.44;5094615;28;20051;-71
2022/06/04 02:01:36;;;;;;;9.27;3.83;;;;;;;12.66;84.75;101913.00;5094347;28;20056;-72
2022/06/04 02:04:08;;;;;;;8.13;4.22;;;;;;;12.66;85.01;101913.00;5094235;28;20567;-72
2022/06/04 02:06:42;;;;;;;8.75;3.85;;;;;;;12.67;84.78;101898.88;5093809;28;20060;-72
2022/06/04 02:09:14;;;;;;;9.35;4.20;;;;;;;12.66;84.55;101892.72;5094107;28;20047;-72
2022/06/04 02:11:53;;;;;;;9.48;4.30;;;;;;;12.52;84.99;101888.25;5093888;28;20044;-69
2022/06/04 02:14:21;;;;;;;8.05;3.95;;;;;;;12.51;85.45;101886.53;5094154;28;20047;-68
2022/06/04 02:16:54;;;;;;;8.27;4.50;;;;;;;12.52;85.10;101895.31;5093719;28;20052;-68
2022/06/04 02:19:23;;;;;;;8.27;4.88;;;;;;;12.54;84.90;101898.69;5093808;28;20055;-69
2022/06/04 02:21:51;;;;;;;9.55;4.10;;;;;;;12.48;85.21;101899.06;5093801;28;20052;-69
2022/06/04 02:24:19;;;;;;;7.70;4.38;;;;;;;12.50;85.28;101897.16;5093722;28;20063;-69
2022/06/04 02:26:49;;;;;;;8.70;4.10;;;;;;;12.56;85.72;101902.13;5093596;28;20036;-68
2022/06/04 02:29:19;;;;;;;8.68;4.10;;;;;;;12.47;86.20;101898.19;5093876;28;20052;-68
2022/06/04 02:31:53;;;;;;;8.68;4.40;;;;;;;12.34;86.56;101887.50;5093508;28;20060;-69
2022/06/04 02:34:27;;;;;;;7.55;4.20;;;;;;;12.40;86.84;101883.66;5093719;28;20052;-69
2022/06/04 02:37:02;;;;;;;8.75;4.45;;;;;;;12.41;87.16;101882.72;5093565;28;20082;-69
2022/06/04 02:39:39;;;;;;;11.23;5.25;;;;;;;12.30;87.85;101891.25;5093550;28;20422;-69
2022/06/04 02:42:14;;;;;;;9.02;4.72;;;;;;;12.30;87.85;101880.69;5090666;28;20059;-71
2022/06/04 02:44:48;;;;;;;8.95;3.90;;;;;;;12.29;88.46;101870.22;5089090;28;20445;-73
2022/06/04 02:47:21;;;;;;;9.75;4.25;;;;;;;12.26;89.09;101863.34;5093417;28;20051;-73
2022/06/04 02:49:53;;;;;;;9.60;4.63;;;;;;;12.25;88.97;101872.19;5093311;28;20051;-70
2022/06/04 02:52:23;;;;;;;8.25;4.57;;;;;;;12.29;88.68;101876.34;5093388;28;20051;-69
2022/06/04 02:54:56;;;;;;;10.35;4.45;;;;;;;12.25;89.28;101855.50;5089146;28;20051;-68
2022/06/04 02:57:30;;;;;;;7.53;4.50;;;;;;;12.18;89.48;101853.22;5090324;28;20048;-70
2022/06/04 03:00:00;;;;;;;8.05;4.40;;;;;;;12.25;89.73;101856.34;5093125;28;20046;-70
2022/06/04 03:02:31;;;;;;;12.05;4.47;;;;;;;12.34;89.13;101849.72;5093312;28;20486;-72
2022/06/04 03:05:08;;;;;;;9.93;4.70;;;;;;;12.36;88.98;101847.00;5093134;28;20059;-69
2022/06/04 03:07:39;;;;;;;9.48;4.20;;;;;;;12.32;89.02;101851.59;5092911;28;20055;-70
2022/06/04 03:10:12;;;;;;;12.48;4.43;;;;;;;12.33;89.33;101853.28;5093148;28;20048;-68
2022/06/04 03:12:42;;;;;;;8.52;4.47;;;;;;;12.22;90.09;101851.25;5092913;28;20118;-71
2022/06/04 03:15:12;;;;;;;10.73;4.80;;;;;;;12.21;90.64;101848.72;5092977;28;20445;-71
2022/06/04 03:17:41;;;;;;;10.27;4.57;;;;;;;12.08;91.63;101861.72;5092663;28;20127;-70
2022/06/04 03:20:11;;;;;;;9.85;4.15;;;;;;;12.07;91.18;101850.31;5092746;28;20048;-73
2022/06/04 03:22:39;;;;;;;8.85;4.85;;;;;;;12.11;91.08;101845.75;5090365;28;20232;-71
2022/06/04 03:25:08;;;;;;;10.45;5.28;;;;;;;12.05;91.28;101839.00;5088097;28;20105;-70
2022/06/04 03:27:36;;;;;;;8.50;4.30;;;;;;;12.00;92.23;101836.63;5091095;28;20040;-69
2022/06/04 03:30:07;;;;;;;10.68;5.18;;;;;;;12.03;92.61;101850.59;5092535;28;20040;-68
2022/06/04 03:32:36;;;;;;;9.93;5.38;;;;;;;11.91;93.66;101847.66;5089097;28;20085;-70
2022/06/04 03:35:05;;;;;;;13.32;5.22;;;;;;;11.94;93.72;101841.34;5089914;28;20509;-68
2022/06/04 03:37:34;;;;;;;11.63;5.60;;;;;;;11.96;93.54;101844.81;5092711;28;20067;-69
2022/06/04 03:40:03;;;;;;;8.98;4.57;;;;;;;11.98;94.07;101843.78;5092526;28;20448;-70
2022/06/04 03:42:31;;;;;;;10.23;5.55;;;;;;;11.84;95.28;101849.75;5091127;28;20040;-69
2022/06/04 03:44:59;;;;;;;9.88;5.32;;;;;;;11.84;95.89;101852.41;5092457;28;20052;-69
2022/06/04 03:47:33;;;;;;;11.63;5.10;;;;;;;11.83;95.58;101860.41;5092176;28;20616;-69
2022/06/04 03:50:01;;;;;;;10.77;5.45;;;;;;;11.84;95.80;101852.41;5092624;28;20067;-72
2022/06/04 03:52:29;;;;;;;10.88;5.35;;;;;;;11.90;96.28;101853.88;5092083;28;20120;-72
2022/06/04 03:54:57;;;;;;;12.73;6.05;;;;;;;11.85;96.25;101861.19;5091974;28;20216;-71
2022/06/04 03:57:41;;;;;;;10.85;5.28;;;;;;;11.82;97.31;101858.69;5091920;28;20051;-71
2022/06/04 04:00:14;;;;;;;13.10;6.30;;;;;;;11.72;97.24;101868.03;5092199;28;20075;-71
2022/06/04 04:02:48;;;;;;;11.05;5.85;;;;;;;11.87;97.20;101863.72;5091825;28;20048;-71
2022/06/04 04:05:20;;;;;;;11.45;5.70;;;;;;;11.85;97.28;101858.53;5091770;28;20044;-71
2022/06/04 04:07:48;;;;;;;13.15;6.07;;;;;;;11.93;97.43;101869.53;5091584;28;20503;-71
2022/06/04 04:10:18;;;;;;;11.70;5.68;;;;;;;11.85;97.65;101871.72;5091886;28;20044;-72
2022/06/04 04:12:46;;;;;;;11.38;6.38;;;;;;;11.79;98.25;101870.28;5091837;28;20532;-72
2022/06/04 04:15:15;;;;;;;11.88;5.90;;;;;;;11.92;97.93;101881.00;5090805;28;20120;-69
2022/06/04 04:17:45;;;;;;;13.23;5.97;;;;;;;11.83;98.52;101876.22;5091561;28;20044;-69
2022/06/04 04:20:16;;;;;;;12.32;5.95;;;;;;;11.84;98.62;101872.66;5090714;28;20142;-72
2022/06/04 04:22:45;;;;;;;15.05;5.88;;;;;;;11.84;98.58;101885.81;5090426;28;20047;-72
2022/06/04 04:25:16;;;;;;;9.55;5.68;;;;;;;11.85;98.57;101882.25;5091703;28;20502;-72
2022/06/04 04:27:44;;;;;;;14.23;5.90;;;;;;;11.91;98.84;101887.19;5091225;28;20035;-72
2022/06/04 04:30:15;;;;;;;11.27;6.03;;;;;;;11.91;98.49;101883.72;5091601;28;20089;-70
2022/06/04 04:32:45;;;;;;;10.77;6.20;;;;;;;11.96;98.48;101885.19;5091305;28;20040;-69
2022/06/04 04:35:15;;;;;;;13.30;6.88;;;;;;;11.89;99.67;101875.88;5090712;28;20051;-69
2022/06/04 04:37:44;;;;;;;11.73;6.47;;;;;;;11.92;99.37;101880.16;5091249;28;20040;-70
2022/06/04 04:40:14;;;;;;;13.40;6.47;;;;;;;11.89;99.30;101889.06;5091486;28;20044;-69
2022/06/04 04:42:42;;;;;;;13.98;6.68;;;;;;;11.93;99.08;101885.34;5091346;28;20048;-67
2022/06/04 04:45:11;;;;;;;12.32;6.10;;;;;;;12.02;98.72;101888.44;5091285;28;20124;-69
2022/06/04 04:47:45;;;;;;;11.43;6.63;;;;;;;12.07;98.88;101889.03;5091133;28;20538;-68
2022/06/04 04:50:16;;;;;;;15.88;7.10;;;;;;;12.04;98.78;101900.59;5091660;28;20052;-72
2022/06/04 04:52:45;;;;;;;12.65;7.13;;;;;;;12.04;99.15;101883.91;5091079;28;20134;-72
2022/06/04 04:55:14;;;;;;;10.68;7.05;;;;;;;12.07;98.93;101896.94;5091328;28;20047;-69
2022/06/04 04:57:42;;;;;;;13.32;6.60;;;;;;;12.14;98.34;101906.22;5091033;28;20055;-72
2022/06/04 05:00:13;;;;;;;13.07;6.75;;;;;;;12.16;98.04;101899.94;5091161;28;20067;-73
2022/06/04 05:02:41;;;;;;;11.45;6.50;;;;;;;12.17;97.90;101900.75;5091042;28;20050;-73
2022/06/04 05:05:12;;;;;;;12.48;6.40;;;;;;;12.20;98.63;101903.22;5091281;28;20525;-71
2022/06/04 05:07:40;;;;;;;14.15;6.90;;;;;;;12.34;97.51;101897.22;5090869;28;20371;-71
2022/06/04 05:10:10;;;;;;;12.68;6.80;;;;;;;12.36;97.51;101902.41;5091402;28;20142;-72
2022/06/04 05:12:38;;;;;;;12.43;6.97;;;;;;;12.47;96.50;101900.00;5091180;28;20109;-72
2022/06/04 05:15:07;;;;;;;11.77;6.60;;;;;;;12.56;96.24;101906.56;5091267;28;20044;-73
2022/06/04 05:17:35;;;;;;;13.35;6.90;;;;;;;12.60;96.31;101919.47;5091108;28;20427;-71
2022/06/04 05:20:04;;;;;;;12.60;5.97;;;;;;;12.70;95.44;101917.16;5091035;28;20058;-71
2022/06/04 05:22:34;;;;;;;10.85;6.13;;;;;;;12.73;94.66;101930.19;5091150;28;20048;-71
2022/06/04 05:25:03;;;;;;;11.40;6.22;;;;;;;12.78;95.12;101935.22;5091078;28;20055;-71
2022/06/04 05:27:31;;;;;;;11.40;6.55;;;;;;;12.77;94.81;101929.06;5090777;28;20032;-71
2022/06/04 05:29:59;;;;;;;13.57;6.55;;;;;;;12.80;94.53;101943.88;5091003;28;20043;-71
2022/06/04 05:32:27;;;;;;;13.85;6.63;;;;;;;12.80;94.59;101939.47;5091039;28;20044;-72
2022/06/04 05:34:56;;;;;;;13.45;6.93;;;;;;;12.80;94.60;101922.75;5090859;28;20070;-71
2022/06/04 05:37:24;;;;;;;10.80;5.93;;;;;;;12.91;94.46;101930.94;5090825;28;20441;-71
2022/06/04 05:39:53;;;;;;;13.48;6.90;;;;;;;12.96;94.21;101936.78;5090671;28;20059;-72
2022/06/04 05:42:21;;;;;;;13.23;6.00;;;;;;;13.06;93.66;101925.69;5091266;28;20397;-71
2022/06/04 05:44:49;;;;;;;11.30;6.30;;;;;;;13.07;93.10;101922.09;5090716;28;20422;-72
2022/06/04 05:47:17;;;;;;;11.80;7.00;;;;;;;13.13;93.34;101921.72;5093692;28;20123;-72
2022/06/04 05:49:45;;;;;;;14.05;6.57;;;;;;;13.11;93.04;101923.63;5094344;28;20052;-68
2022/06/04 05:52:14;;;;;;;12.32;6.05;;;;;;;13.13;93.24;101919.09;5094550;28;20048;-68
2022/06/04 05:54:42;;;;;;;11.07;6.43;;;;;;;13.17;93.21;101913.56;5094499;28;20074;-71
2022/06/04 05:57:11;;;;;;;11.40;6.60;;;;;;;13.29;92.85;101906.69;5094556;28;20048;-71
2022/06/04 05:59:40;;;;;;;12.55;6.70;;;;;;;13.34;92.08;101912.53;5094165;28;20106;-71
2022/06/04 06:02:08;;;;;;;10.05;6.38;;;;;;;13.35;92.72;101916.03;5094338;28;20499;-68
2022/06/04 06:04:36;;;;;;;9.70;5.95;;;;;;;13.48;91.94;101910.91;5093795;28;20523;-71
2022/06/04 06:07:05;;;;;;;10.88;5.95;;;;;;;13.59;91.41;101921.66;5094223;28;20127;-72
2022/06/04 06:09:33;;;;;;;12.77;6.38;;;;;;;13.63;90.33;101925.84;5094193;28;20044;-72
2022/06/04 06:12:02;;;;;;;11.00;6.25;;;;;;;13.64;90.76;101919.59;5094158;28;20047;-71
2022/06/04 06:14:32;;;;;;;12.90;6.63;;;;;;;13.68;89.97;101936.13;5094254;28;20063;-72
2022/06/04 06:17:00;;;;;;;11.38;6.05;;;;;;;13.68;90.23;101936.97;5093703;28;20099;-72
2022/06/04 06:19:29;;;;;;;10.90;6.28;;;;;;;13.65;89.95;101945.06;5093915;28;20044;-72
2022/06/04 06:21:57;;;;;;;11.48;6.43;;;;;;;13.69;90.02;101961.63;5093953;28;20051;-72
2022/06/04 06:24:25;;;;;;;13.35;6.75;;;;;;;13.74;89.78;101969.25;5093944;28;20068;-72
2022/06/04 06:26:57;;;;;;;12.55;6.43;;;;;;;13.72;89.74;101971.16;5093720;28;20047;-72
2022/06/04 06:29:27;;;;;;;13.20;6.25;;;;;;;13.88;89.04;101960.47;5093549;28;20113;-71
2022/06/04 06:31:59;;;;;;;10.60;5.85;;;;;;;13.88;88.35;101971.91;5093840;28;20405;-71
2022/06/04 06:34:27;;;;;;;11.73;6.20;;;;;;;13.91;89.17;101971.72;5093817;28;20047;-72
2022/06/04 06:36:56;;;;;;;12.60;6.25;;;;;;;13.89;88.59;101973.59;5093707;28;20399;-73
2022/06/04 06:39:25;;;;;;;12.73;6.00;;;;;;;13.98;88.11;101978.31;5093366;28;20131;-71
2022/06/04 06:41:53;;;;;;;14.70;6.55;;;;;;;13.97;88.35;101967.84;5093328;28;20533;-71
2022/06/04 06:44:22;;;;;;;12.30;6.60;;;;;;;14.07;88.54;101978.69;5093553;28;20051;-71
2022/06/04 06:46:54;;;;;;;10.98;6.40;;;;;;;14.10;88.44;101981.19;5093383;28;20044;-69
2022/06/04 06:49:26;;;;;;;15.95;7.25;;;;;;;14.10;86.92;101986.47;5093214;28;20093;-68
2022/06/04 06:51:57;;;;;;;13.20;6.55;;;;;;;14.12;87.26;101993.34;5093486;28;20131;-72
2022/06/04 06:54:28;;;;;;;11.80;6.47;;;;;;;14.10;86.87;101999.69;5093184;28;20048;-72
2022/06/04 06:56:57;;;;;;;12.07;6.75;;;;;;;14.06;87.47;101999.03;5092922;28;20134;-72
2022/06/04 06:59:25;;;;;;;13.07;6.65;;;;;;;14.12;87.08;101995.97;5092797;28;20067;-71
2022/06/04 07:01:55;;;;;;;12.38;6.30;;;;;;;14.20;86.56;101992.88;5092980;28;20055;-72
2022/06/04 07:04:25;;;;;;;11.15;6.03;;;;;;;14.13;87.37;101986.28;5093189;28;20055;-72
2022/06/04 07:06:57;;;;;;;9.98;6.15;;;;;;;14.24;87.67;101998.84;5092704;28;20398;-71
2022/06/04 07:09:28;;;;;;;12.07;5.80;;;;;;;14.33;87.63;102001.75;5092903;28;20072;-71
2022/06/04 07:11:57;;;;;;;11.68;6.05;;;;;;;14.40;86.61;102009.28;5093087;28;20056;-72
2022/06/04 07:14:25;;;;;;;11.05;5.78;;;;;;;14.45;86.18;101992.19;5092898;28;20131;-71
2022/06/04 07:16:54;;;;;;;14.70;6.20;;;;;;;14.60;85.03;101992.16;5092845;28;20097;-73
2022/06/04 07:19:25;;;;;;;10.23;5.85;;;;;;;14.64;84.39;101991.03;5092819;28;20093;-72
2022/06/04 07:21:55;;;;;;;12.05;6.32;;;;;;;14.59;85.23;101991.31;5092942;28;20114;-73
2022/06/04 07:24:24;;;;;;;13.18;6.32;;;;;;;14.67;84.87;101990.81;5092739;28;20044;-72
2022/06/04 07:26:53;;;;;;;11.30;5.55;;;;;;;14.79;83.71;101986.53;5092572;28;20079;-72
2022/06/04 07:29:22;;;;;;;9.98;5.95;;;;;;;14.74;84.49;101983.34;5092569;28;20036;-71
2022/06/04 07:31:50;;;;;;;11.70;6.13;;;;;;;14.85;83.82;101994.09;5091222;28;20044;-72
2022/06/04 07:34:18;;;;;;;12.43;5.72;;;;;;;14.90;83.52;101976.09;5092666;28;20052;-73
2022/06/04 07:36:53;;;;;;;11.25;5.68;;;;;;;14.87;83.65;101976.31;5092553;28;20130;-72
2022/06/04 07:39:22;;;;;;;13.77;6.20;;;;;;;15.00;83.63;101989.59;5092335;28;20142;-72
2022/06/04 07:41:53;;;;;;;12.40;6.30;;;;;;;14.99;83.45;101986.09;5092427;28;20089;-72
2022/06/04 07:44:24;;;;;;;11.75;6.28;;;;;;;15.08;83.03;101981.13;5092521;28;20039;-73
2022/06/04 07:46:53;;;;;;;11.50;6.22;;;;;;;15.14;82.82;101981.56;5092410;28;20454;-73
2022/06/04 07:49:21;;;;;;;12.38;6.32;;;;;;;15.12;82.21;101983.50;5092267;28;20052;-73
2022/06/04 07:51:50;;;;;;;11.65;6.03;;;;;;;15.16;81.76;101982.34;5092273;28;20388;-73
2022/06/04 07:54:19;;;;;;;12.70;6.35;;;;;;;15.20;81.37;101988.25;5092436;28;20048;-72
2022/06/04 07:56:47;;;;;;;12.23;6.18;;;;;;;15.32;81.69;101987.44;5092152;28;20399;-72
2022/06/04 07:59:16;;;;;;;10.80;6.18;;;;;;;15.41;82.07;101991.28;5092013;28;20449;-72
2022/06/04 08:01:45;;;;;;;15.27;6.63;;;;;;;15.63;81.14;101985.38;5092403;28;20105;-71
2022/06/04 08:04:14;;;;;;;11.20;5.85;;;;;;;15.58;81.13;101992.78;5091988;28;20047;-71
2022/06/04 08:06:43;;;;;;;10.98;6.40;;;;;;;15.72;80.78;101994.50;5091566;28;20055;-72
2022/06/04 08:09:12;;;;;;;13.73;6.40;;;;;;;15.78;80.16;101993.22;5091655;28;20067;-72
2022/06/04 08:11:42;;;;;;;11.90;6.47;;;;;;;15.72;79.60;101989.19;5091676;28;20082;-74
2022/06/04 08:14:15;;;;;;;12.50;6.63;;;;;;;15.83;80.01;101991.97;5092234;28;20040;-72
2022/06/04 08:16:45;;;;;;;13.43;5.90;;;;;;;15.88;79.07;101987.22;5091852;28;20048;-73
2022/06/04 08:19:14;;;;;;;13.73;6.20;;;;;;;15.94;79.13;101987.72;5090715;28;20056;-73
2022/06/04 08:21:42;;;;;;;11.10;5.72;;;;;;;16.13;78.68;101987.28;5091961;28;20052;-72
2022/06/04 08:24:12;;;;;;;9.80;5.65;;;;;;;16.25;77.90;101990.88;5091750;28;20051;-72
2022/06/04 08:26:45;;;;;;;9.80;5.80;;;;;;;16.44;77.65;101990.41;5091849;28;20051;-72
2022/06/04 08:29:14;;;;;;;11.98;5.80;;;;;;;16.44;76.56;102004.50;5091690;28;20048;-72
2022/06/04 08:31:42;;;;;;;10.60;6.32;;;;;;;16.38;76.66;102008.47;5091552;28;20071;-72
2022/06/04 08:34:10;;;;;;;12.13;6.47;;;;;;;16.43;76.61;102007.28;5091782;28;20032;-72
2022/06/04 08:36:38;;;;;;;11.77;6.00;;;;;;;16.53;75.53;102005.69;5091620;28;20064;-72
2022/06/04 08:39:06;;;;;;;10.70;5.90;;;;;;;16.57;75.92;102007.16;5091487;28;20048;-72
2022/06/04 08:41:54;;;;;;;10.70;5.40;;;;;;;16.68;75.41;102004.56;5091717;28;20043;-72
2022/06/04 08:44:29;;;;;;;10.95;5.93;;;;;;;16.80;74.69;101999.34;5089000;28;20094;-72
2022/06/04 08:47:00;;;;;;;9.27;5.80;;;;;;;16.88;73.90;101994.31;5091908;28;20043;-71
2022/06/04 08:49:32;;;;;;;10.93;6.70;;;;;;;16.94;73.78;101998.34;5091328;28;20055;-73
2022/06/04 08:52:02;;;;;;;12.90;6.30;;;;;;;16.96;73.36;101989.28;5091436;28;20044;-72
2022/06/04 08:57:34;;;;;;;9.60;5.75;;;;;;;17.10;72.63;101985.59;5091456;28;20047;-72
2022/06/04 09:00:09;;;;;;;9.73;5.72;;;;;;;17.22;72.70;101979.34;5091277;28;20127;-71
2022/06/04 09:03:05;;;;;;;10.98;6.28;;;;;;;17.39;72.73;101975.41;5091146;28;20122;-72
2022/06/04 09:05:56;;;;;;;10.68;5.63;;;;;;;17.58;71.63;101977.50;5091045;28;20052;-73
2022/06/04 09:08:35;;;;;;;11.57;5.95;;;;;;;17.72;71.31;101979.13;5088674;28;20134;-73
2022/06/04 09:11:10;;;;;;;11.48;5.70;;;;;;;17.88;71.55;101975.25;5091226;28;20048;-72
2022/06/04 09:13:45;;;;;;;10.57;5.88;;;;;;;17.99;70.12;101980.59;5091102;28;20080;-72
2022/06/04 09:16:25;;;;;;;11.95;8.50;;;;;;;18.08;69.04;101985.19;5091272;28;20127;-72
2022/06/04 09:18:59;;;;;;;10.25;6.53;;;;;;;17.92;68.63;101986.53;5091394;28;20051;-72
2022/06/04 09:21:33;;;;;;;9.13;5.50;;;;;;;18.07;69.08;101993.31;5092827;28;20044;-74
2022/06/04 09:24:01;;;;;;;10.30;5.78;;;;;;;18.05;67.70;101993.44;5095022;28;20044;-72
2022/06/04 09:26:36;;;;;;;10.82;5.97;;;;;;;18.25;67.65;101993.66;5095079;28;20437;-72
2022/06/04 09:29:24;;;;;;;10.18;5.85;;;;;;;18.30;66.92;101991.47;5095150;28;20139;-72
2022/06/04 09:32:03;;;;;;;11.10;6.00;;;;;;;18.59;67.07;101990.94;5094712;28;20047;-72
2022/06/04 09:34:36;;;;;;;10.27;5.65;;;;;;;18.58;66.30;101990.09;5094957;28;20444;-70
2022/06/04 09:37:07;;;;;;;13.48;6.32;;;;;;;18.73;65.74;101990.66;5094684;28;20055;-70
2022/06/04 09:39:37;;;;;;;10.05;5.72;;;;;;;18.83;63.84;101995.22;5094915;28;20059;-71
2022/06/04 09:42:19;;;;;;;10.63;5.53;;;;;;;18.83;63.12;101996.09;5095256;28;20124;-71
2022/06/04 09:44:52;;;;;;;9.95;5.38;;;;;;;18.82;63.04;101993.56;5094813;28;20498;-71
2022/06/04 09:47:34;;;;;;;10.30;5.07;;;;;;;19.03;61.51;102001.59;5094295;28;20056;-72
2022/06/04 09:50:05;;;;;;;11.25;6.25;;;;;;;19.14;61.26;101998.06;5094927;28;20059;-72
2022/06/04 09:52:36;;;;;;;9.50;5.28;;;;;;;19.36;60.63;101989.94;5095093;28;20093;-71
2022/06/04 09:55:16;;;;;;;8.52;5.45;;;;;;;19.56;59.78;101992.72;5094639;28;20506;-71
2022/06/04 09:57:56;;;;;;;9.50;5.25;;;;;;;19.93;58.42;101989.56;5094314;28;20048;-70
2022/06/04 10:00:27;;;;;;;8.98;4.97;;;;;;;20.22;58.36;101994.19;5094537;28;20047;-71
2022/06/04 10:02:59;;;;;;;8.82;4.70;;;;;;;20.70;57.18;101995.31;5094348;28;20040;-71
2022/06/04 10:05:31;;;;;;;11.05;5.30;;;;;;;20.98;54.69;102001.66;5094709;28;20047;-72
2022/06/04 10:07:59;;;;;;;9.60;4.88;;;;;;;21.29;55.08;102004.19;5094443;28;20048;-72
2022/06/04 10:10:38;;;;;;;7.55;4.68;;;;;;;21.64;53.58;101997.41;5094370;28;20131;-71
2022/06/04 10:16:00;;;;;;;8.32;5.30;;;;;;;22.11;51.86;101996.50;5094550;28;20506;-72
2022/06/04 10:18:34;;;;;;;8.68;4.30;;;;;;;22.53;52.16;102009.44;5092997;28;20048;-72
2022/06/04 10:21:06;;;;;;;9.63;4.90;;;;;;;22.89;50.45;101997.88;5094278;28;20059;-72
2022/06/04 10:23:42;;;;;;;8.02;4.38;;;;;;;23.36;50.91;102004.88;5093919;28;20043;-72
2022/06/04 10:26:33;;;;;;;8.48;4.90;;;;;;;23.38;48.27;102014.44;5094227;28;20430;-73
2022/06/04 10:29:17;;;;;;;9.07;4.88;;;;;;;23.49;47.55;102007.13;5093892;28;20044;-72
2022/06/04 10:31:58;;;;;;;11.82;4.97;;;;;;;23.60;47.70;102014.91;5093607;28;20048;-73
2022/06/04 10:34:37;;;;;;;9.02;4.85;;;;;;;23.44;47.10;102019.19;5093834;28;20406;-72
2022/06/04 10:37:20;;;;;;;10.23;5.10;;;;;;;23.44;47.08;102021.84;5093854;28;20052;-72
2022/06/04 10:40:00;;;;;;;9.23;4.60;;;;;;;23.43;47.24;102022.03;5093562;28;20056;-72
2022/06/04 10:42:38;;;;;;;9.35;4.93;;;;;;;23.60;46.33;102023.81;5093974;28;20044;-72
2022/06/04 10:45:32;;;;;;;8.55;5.20;;;;;;;23.67;46.50;102020.50;5093576;28;20044;-72
2022/06/04 10:48:06;;;;;;;10.52;5.10;;;;;;;23.65;45.39;102020.66;5090185;28;20113;-72
2022/06/04 10:53:56;;;;;;;9.63;5.60;;;;;;;23.32;45.81;102004.31;5045597;28;20064;-72
2022/06/04 10:56:29;;;;;;;9.80;5.78;;;;;;;23.12;46.63;102001.84;5093420;28;20048;-67
2022/06/04 10:59:03;;;;;;;8.77;4.95;;;;;;;23.43;47.47;101992.50;5093549;28;20070;-74
2022/06/04 11:01:37;;;;;;;10.23;4.90;;;;;;;23.48;47.36;102000.06;5093690;28;20044;-71
2022/06/04 11:04:16;;;;;;;9.38;5.25;;;;;;;23.36;47.43;102000.31;5093291;28;20446;-66
2022/06/04 11:06:51;;;;;;;11.85;5.57;;;;;;;23.34;47.39;101999.66;5092789;28;20052;-65
2022/06/04 11:09:25;;;;;;;7.88;4.68;;;;;;;23.22;48.08;102008.94;5093027;28;20047;-66
2022/06/04 11:11:58;;;;;;;7.63;4.68;;;;;;;23.39;48.22;101997.31;5092761;28;20074;-66
2022/06/04 11:14:40;;;;;;;9.18;4.60;;;;;;;23.46;47.52;101995.72;5093116;28;20518;-65
2022/06/04 11:17:16;;;;;;;9.33;4.47;;;;;;;23.63;46.31;102001.19;5092896;28;20059;-66
2022/06/04 11:19:55;;;;;;;9.85;5.30;;;;;;;23.48;46.67;102005.44;5092680;28;20402;-68
2022/06/04 11:22:33;;;;;;;8.65;5.05;;;;;;;23.47;46.63;102007.28;5092653;28;20044;-68
2022/06/04 11:25:14;;;;;;;8.07;4.63;;;;;;;23.49;46.76;102004.44;5073669;28;20579;-67
2022/06/04 11:27:50;;;;;;;7.88;4.82;;;;;;;23.38;46.89;102008.22;5069514;28;20045;-71
2022/06/04 11:30:27;;;;;;;8.23;4.32;;;;;;;23.36;47.18;102011.06;5066043;28;20193;-70
2022/06/04 11:33:03;;;;;;;8.48;4.75;;;;;;;23.52;46.75;102012.16;5090441;28;20048;-67
2022/06/04 11:35:42;;;;;;;7.25;4.30;;;;;;;23.73;46.98;102006.44;5092939;28;20048;-66
2022/06/04 11:38:44;;;;;;;8.75;4.43;;;;;;;24.10;45.56;101999.94;5093045;28;20048;-66
2022/06/04 11:41:23;;;;;;;9.10;4.40;;;;;;;24.15;44.91;101994.94;5088906;28;20047;-65
2022/06/04 11:44:08;;;;;;;9.27;4.45;;;;;;;24.27;44.99;101996.31;5061075;28;20399;-66
2022/06/04 11:46:50;;;;;;;8.25;4.43;;;;;;;24.46;45.45;101991.69;5072150;28;20045;-72
2022/06/04 11:49:33;;;;;;;8.93;4.20;;;;;;;24.67;44.95;101990.41;5072241;28;20107;-71
2022/06/04 11:52:15;;;;;;;6.63;3.90;;;;;;;24.59;44.18;101991.19;5072008;28;20044;-72
2022/06/04 11:55:16;;;;;;;8.20;4.40;;;;;;;24.53;43.88;101987.31;5072078;28;20049;-71
2022/06/04 11:58:01;;;;;;;7.25;4.30;;;;;;;25.01;43.46;102003.72;5072001;28;20379;-71
2022/06/04 12:00:32;;;;;;;7.57;4.35;;;;;;;24.57;43.21;101994.03;5072077;28;20049;-72
2022/06/04 12:03:15;;;;;;;7.15;4.10;;;;;;;24.77;44.05;101989.25;5071765;28;20221;-71